Albia, IA

1:39 AM CDT on July 31, 2016 (GMT -0500)
rusty66 | | Change Station

Elev 850 ft 41.15 °N, 92.77 °W | Updated 8 minutes ago

Clear
Clear
65.5 °F
Feels Like 65.5 °F
N
0.0
Wind Variable Wind from South

Today
High -- | Low -- °F
--% Chance of Precip.
Yesterday
High -- | Low -- °F
Precip. -- in
Pressure 29.99 in
Visibility 8.0 miles
Clouds Clear
Dew Point 65 °F
Humidity 99%
Rainfall 0.00 in
Snow Depth Not available.
6:06 AM 8:27 PM
Waning Crescent, 8% visible
METAR KOTM 310553Z AUTO 17003KT 8SM CLR 18/17 A3001 RMK AO2 SLP156 T01780167 10267 20178 402720178 51007
Pressure 29.99 in
Visibility 8.0 miles
Clouds Clear
Dew Point 65 °F
Humidity 99%
Rainfall 0.00 in
Snow Depth Not available.
6:06 AM 8:27 PM
Waning Crescent, 8% visible
METAR KOTM 310553Z AUTO 17003KT 8SM CLR 18/17 A3001 RMK AO2 SLP156 T01780167 10267 20178 402720178 51007

10-Day Weather Forecast

Almanac

Astronomy

Jul. 31, 2016 Rise Set
Actual Time
Civil Twilight
Nautical Twilight
Astronomical Twilight
Moon
Length of Visible Light
Length of Day
Tomorrow will be .
, % of the Moon is Illuminated

Today's Extremes

State Highs State Lows

Community

WunderPhotos

Upload Photos

1,928,766 photos uploaded!

WunderBlog® & News

Nearby

Air Quality

  Air Quality AQ Index Pollutant
Not available.

Snow Depth

Station Depth Elevation

Earthquake Activity

City Distance Mag. Time & Date
Minimum magnitude displayed is 2.5.

Coastal Water Temperatures

Place Temperature

Stations

Nearby Weather Stations

Station Location Temp. Windchill Dew Point Humidity Wind Precip. Elev Updated Type
                   

Watches & Warnings

There are currently no watches in effect.